Time;durP1;ratioP1;P1;durP2;ratioP2;P2;SDS_P1;SDS_P2;PMS_P1;PMS_P2;Temp;Humidity;BMP_temperature;BMP_pressure;BME280_temperature;BME280_humidity;BME280_pressure;Samples;Min_cycle;Max_cycle;Signal;HPM_P1;HPM_P2
2023/07/18 00:01:27;;;;;;;3.22;1.00;;;20.10;86.40;;;;;;5014258;28;20033;-76
2023/07/18 00:03:52;;;;;;;4.30;1.20;;;20.00;87.20;;;;;;5032662;28;20053;-75
2023/07/18 00:06:18;;;;;;;3.03;1.00;;;19.90;88.30;;;;;;5033413;28;20029;-75
2023/07/18 00:08:44;;;;;;;2.50;1.15;;;19.90;88.40;;;;;;5032593;28;20025;-75
2023/07/18 00:11:10;;;;;;;2.45;1.05;;;19.90;87.80;;;;;;5015475;28;20172;-73
2023/07/18 00:13:35;;;;;;;3.65;1.08;;;19.90;88.60;;;;;;5031697;28;20108;-74
2023/07/18 00:16:01;;;;;;;3.83;1.20;;;19.80;89.30;;;;;;5032185;28;20037;-74
2023/07/18 00:18:27;;;;;;;2.50;1.10;;;19.90;89.30;;;;;;5014197;28;20030;-75
2023/07/18 00:20:52;;;;;;;2.03;1.00;;;19.90;89.30;;;;;;5014911;28;20025;-75
2023/07/18 00:23:18;;;;;;;6.97;1.15;;;19.90;89.20;;;;;;5014654;28;20037;-73
2023/07/18 00:25:44;;;;;;;1.92;1.20;;;20.10;89.10;;;;;;5013943;28;20187;-74
2023/07/18 00:28:10;;;;;;;3.42;1.30;;;20.10;89.30;;;;;;5032347;28;20474;-75
2023/07/18 00:30:35;;;;;;;2.90;1.10;;;20.00;90.00;;;;;;5013994;28;20021;-75
2023/07/18 00:33:01;;;;;;;3.70;1.10;;;20.10;90.10;;;;;;5032188;28;20033;-74
2023/07/18 00:35:27;;;;;;;4.25;1.27;;;20.10;89.60;;;;;;5013584;28;20112;-74
2023/07/18 00:37:53;;;;;;;3.63;1.08;;;20.20;89.30;;;;;;5014651;28;20034;-75
2023/07/18 00:40:19;;;;;;;4.15;1.00;;;20.30;88.50;;;;;;5014220;28;20393;-75
2023/07/18 00:42:47;;;;;;;4.30;1.23;;;20.30;88.80;;;;;;5032299;28;20028;-75
2023/07/18 00:45:13;;;;;;;1.70;0.80;;;20.30;88.80;;;;;;5032499;28;20516;-74
2023/07/18 00:47:41;;;;;;;4.13;1.10;;;20.30;88.80;;;;;;5031371;28;20022;-74
2023/07/18 00:50:09;;;;;;;5.15;1.30;;;20.40;88.80;;;;;;5014392;28;20029;-73
2023/07/18 00:52:45;;;;;;;2.60;1.10;;;20.40;89.80;;;;;;5031140;28;20021;-74
2023/07/18 00:55:13;;;;;;;3.90;1.00;;;20.40;90.30;;;;;;5032008;28;20033;-74
2023/07/18 00:57:40;;;;;;;3.03;0.85;;;20.30;90.40;;;;;;5013600;28;20367;-74
2023/07/18 01:00:11;;;;;;;2.67;0.98;;;20.30;90.70;;;;;;5016256;28;20079;-74
2023/07/18 01:02:39;;;;;;;3.05;0.90;;;20.30;90.80;;;;;;5037691;28;20017;-73
2023/07/18 01:05:06;;;;;;;2.63;1.00;;;20.20;91.00;;;;;;5020316;28;20056;-74
2023/07/18 01:07:32;;;;;;;1.92;1.02;;;20.20;91.00;;;;;;5020157;28;20033;-74
2023/07/18 01:10:24;;;;;;;2.13;0.88;;;20.20;90.90;;;;;;5020967;28;20032;-74
2023/07/18 01:12:55;;;;;;;5.32;1.70;;;20.20;91.10;;;;;;5025400;28;20490;-75
2023/07/18 01:15:21;;;;;;;7.13;3.13;;;20.20;91.30;;;;;;5020929;28;20033;-75
2023/07/18 01:17:48;;;;;;;4.65;1.20;;;20.20;91.60;;;;;;5020591;28;20509;-75
2023/07/18 01:20:18;;;;;;;3.15;0.90;;;20.10;92.00;;;;;;5021391;28;20390;-75
2023/07/18 01:22:49;;;;;;;2.47;1.02;;;20.10;92.40;;;;;;5038683;28;20101;-76
2023/07/18 01:25:19;;;;;;;2.23;1.10;;;20.10;92.60;;;;;;5021373;28;20492;-75
2023/07/18 01:27:49;;;;;;;3.53;1.00;;;20.00;93.00;;;;;;5020619;28;20025;-75
2023/07/18 01:30:20;;;;;;;2.08;0.93;;;20.00;93.30;;;;;;5038460;28;20025;-75
2023/07/18 01:32:49;;;;;;;;;;;20.00;93.80;;;;;;5020063;28;20593;-75
2023/07/18 01:35:17;;;;;;;2.30;0.95;;;20.00;93.80;;;;;;5019812;28;19905;-74
2023/07/18 01:37:44;;;;;;;2.33;0.95;;;19.90;94.00;;;;;;5042579;28;20032;-74
2023/07/18 01:40:14;;;;;;;2.60;1.10;;;19.80;94.50;;;;;;5020620;28;20029;-74
2023/07/18 01:42:40;;;;;;;2.65;0.90;;;19.80;94.80;;;;;;5016954;28;20021;-74
2023/07/18 01:45:06;;;;;;;1.98;1.02;;;19.80;95.00;;;;;;5020095;28;20120;-73
2023/07/18 01:47:32;;;;;;;2.90;1.25;;;19.80;95.10;;;;;;5037060;28;20079;-74
2023/07/18 01:49:59;;;;;;;1.83;1.00;;;19.60;95.50;;;;;;5035295;28;20488;-73
2023/07/18 01:52:28;;;;;;;1.85;0.85;;;19.60;95.40;;;;;;5037666;28;20021;-74
2023/07/18 01:54:57;;;;;;;2.33;1.08;;;19.60;95.20;;;;;;5020099;28;20028;-73
2023/07/18 01:57:25;;;;;;;4.03;0.90;;;19.60;94.90;;;;;;5037759;28;20037;-74
2023/07/18 01:59:51;;;;;;;1.42;0.88;;;19.40;94.80;;;;;;5037456;28;20096;-74
2023/07/18 02:02:17;;;;;;;2.47;0.80;;;19.30;95.20;;;;;;5019979;28;20026;-74
2023/07/18 02:04:43;;;;;;;2.42;1.20;;;19.10;95.50;;;;;;5030339;28;20053;-74
2023/07/18 02:07:09;;;;;;;3.92;0.95;;;19.00;96.10;;;;;;5058304;28;20607;-74
2023/07/18 02:09:34;;;;;;;2.75;1.10;;;19.00;96.30;;;;;;5039834;28;20025;-74
2023/07/18 02:12:00;;;;;;;2.85;1.15;;;19.00;96.30;;;;;;5055734;28;20381;-74
2023/07/18 02:14:26;;;;;;;4.30;1.10;;;19.00;96.30;;;;;;5054334;28;20473;-74
2023/07/18 02:16:51;;;;;;;3.58;1.20;;;18.90;96.60;;;;;;5054484;28;20079;-74
2023/07/18 02:19:17;;;;;;;3.00;1.10;;;19.00;96.80;;;;;;5054944;28;20131;-74
2023/07/18 02:21:43;;;;;;;4.70;1.15;;;18.90;97.00;;;;;;5054160;28;20024;-74
2023/07/18 02:24:08;;;;;;;2.67;1.15;;;18.80;97.20;;;;;;5037111;28;20488;-74
2023/07/18 02:26:34;;;;;;;2.70;1.13;;;18.80;97.50;;;;;;5054117;28;20032;-74
2023/07/18 02:29:00;;;;;;;2.78;1.05;;;18.80;97.50;;;;;;5054782;28;20028;-74
2023/07/18 02:31:25;;;;;;;1.70;0.93;;;18.80;97.60;;;;;;5036885;28;20021;-74
2023/07/18 02:33:51;;;;;;;2.83;1.10;;;18.70;97.60;;;;;;5035980;28;20402;-74
2023/07/18 02:36:17;;;;;;;2.30;1.00;;;18.60;98.00;;;;;;5036747;28;20028;-74
2023/07/18 02:38:43;;;;;;;2.38;1.20;;;18.50;98.50;;;;;;5035936;28;20029;-74
2023/07/18 02:41:09;;;;;;;2.63;0.88;;;18.40;98.70;;;;;;5054571;28;20535;-73
2023/07/18 02:43:35;;;;;;;4.15;1.30;;;18.40;99.10;;;;;;5053804;28;20039;-74
2023/07/18 02:46:00;;;;;;;4.13;1.00;;;18.40;99.00;;;;;;5054173;28;20385;-74
2023/07/18 02:48:26;;;;;;;1.58;1.10;;;18.30;98.80;;;;;;5036575;28;20082;-73
2023/07/18 02:50:51;;;;;;;2.63;1.25;;;18.30;99.10;;;;;;5035976;28;20040;-74
2023/07/18 02:53:17;;;;;;;3.15;0.90;;;18.20;99.30;;;;;;5036558;28;20029;-73
2023/07/18 02:55:42;;;;;;;2.30;1.17;;;18.10;99.70;;;;;;5053339;28;20036;-74
2023/07/18 02:58:08;;;;;;;2.47;1.20;;;18.10;99.90;;;;;;5054228;28;20484;-74
2023/07/18 03:00:33;;;;;;;2.25;1.25;;;18.10;99.90;;;;;;5053278;28;20386;-73
2023/07/18 03:03:00;;;;;;;2.45;1.20;;;18.00;99.90;;;;;;5054106;28;20037;-74
2023/07/18 03:05:27;;;;;;;2.47;1.23;;;18.00;99.90;;;;;;5036169;28;20052;-73
2023/07/18 03:07:55;;;;;;;2.00;1.10;;;18.00;99.90;;;;;;5035499;28;20025;-74
2023/07/18 03:10:21;;;;;;;3.30;1.02;;;18.10;99.90;;;;;;5035784;28;20074;-74
2023/07/18 03:12:47;;;;;;;2.42;1.10;;;18.10;99.90;;;;;;5053173;28;20079;-73
2023/07/18 03:15:13;;;;;;;2.25;1.10;;;18.10;99.90;;;;;;5053888;28;20469;-74
2023/07/18 03:17:38;;;;;;;3.70;1.20;;;18.00;99.90;;;;;;5035207;28;20124;-74
2023/07/18 03:20:11;;;;;;;2.20;0.85;;;17.90;99.90;;;;;;5035879;28;20035;-74
2023/07/18 03:22:37;;;;;;;3.03;1.10;;;17.90;99.90;;;;;;5053005;28;20079;-74
2023/07/18 03:25:07;;;;;;;5.30;1.40;;;17.90;99.90;;;;;;5053720;28;20414;-74
2023/07/18 03:27:33;;;;;;;6.80;1.60;;;17.90;99.90;;;;;;5035413;28;20029;-74
2023/07/18 03:29:58;;;;;;;2.38;1.35;;;18.00;99.90;;;;;;5035569;28;20036;-72
2023/07/18 03:32:24;;;;;;;5.18;1.60;;;18.00;99.90;;;;;;5053532;28;20052;-74
2023/07/18 03:34:50;;;;;;;1.55;1.00;;;18.00;99.90;;;;;;5035032;28;20037;-74
2023/07/18 03:37:15;;;;;;;3.50;1.17;;;18.00;99.90;;;;;;5053305;28;20040;-74
2023/07/18 03:39:41;;;;;;;3.08;1.25;;;18.00;99.90;;;;;;5052786;28;20489;-74
2023/07/18 03:42:07;;;;;;;3.70;1.20;;;17.90;99.90;;;;;;5035749;28;20029;-74
2023/07/18 03:44:32;;;;;;;5.07;1.67;;;17.90;99.90;;;;;;5035256;28;20035;-74
2023/07/18 03:46:58;;;;;;;2.80;1.00;;;17.90;99.90;;;;;;5053096;28;20358;-74
2023/07/18 03:49:23;;;;;;;2.95;1.20;;;17.90;99.90;;;;;;5053553;28;20031;-74
2023/07/18 03:51:49;;;;;;;6.20;1.50;;;17.90;99.90;;;;;;5052527;28;20036;-74
2023/07/18 03:54:15;;;;;;;2.40;1.30;;;17.90;99.90;;;;;;5053267;28;20476;-74
2023/07/18 03:56:41;;;;;;;2.15;1.27;;;17.90;99.90;;;;;;5034672;28;20488;-74
2023/07/18 03:59:06;;;;;;;4.28;1.35;;;17.90;99.90;;;;;;5035293;28;20068;-74
2023/07/18 04:01:32;;;;;;;3.60;1.30;;;17.90;99.90;;;;;;5052816;28;20035;-74
2023/07/18 04:03:58;;;;;;;3.53;1.20;;;17.90;99.90;;;;;;5052248;28;20127;-74
2023/07/18 04:06:23;;;;;;;5.13;1.35;;;17.90;99.90;;;;;;5035153;28;20052;-74
2023/07/18 04:08:49;;;;;;;4.07;1.35;;;18.00;99.90;;;;;;5034477;28;20078;-74
2023/07/18 04:11:14;;;;;;;3.40;1.60;;;18.10;99.90;;;;;;5052912;28;20025;-74
2023/07/18 04:13:40;;;;;;;2.45;1.08;;;18.10;99.90;;;;;;5052177;28;20029;-74
2023/07/18 04:16:07;;;;;;;4.00;1.30;;;18.10;99.90;;;;;;5034860;28;20465;-74
2023/07/18 04:18:32;;;;;;;2.63;1.20;;;18.10;99.90;;;;;;5034820;28;20032;-74
2023/07/18 04:21:02;;;;;;;5.43;1.15;;;18.10;99.90;;;;;;5052475;28;20025;-74
2023/07/18 04:23:28;;;;;;;4.43;1.05;;;18.10;99.90;;;;;;5034591;28;20059;-74
2023/07/18 04:26:03;;;;;;;3.40;1.30;;;18.00;99.90;;;;;;5034057;28;20595;-74
2023/07/18 04:28:36;;;;;;;2.05;1.10;;;18.00;99.90;;;;;;5034776;28;20108;-74
2023/07/18 04:31:02;;;;;;;2.08;1.10;;;18.00;99.90;;;;;;5034582;28;20052;-74
2023/07/18 04:33:32;;;;;;;3.70;1.02;;;18.00;99.90;;;;;;5052480;28;20469;-74
2023/07/18 04:35:57;;;;;;;2.50;1.00;;;18.00;99.90;;;;;;5033262;28;20103;-74
2023/07/18 04:38:23;;;;;;;2.67;1.10;;;18.00;99.90;;;;;;5034674;28;20469;-74
2023/07/18 04:40:49;;;;;;;4.97;1.13;;;18.00;99.90;;;;;;5051982;28;20024;-74
2023/07/18 04:43:14;;;;;;;2.67;1.42;;;17.90;99.90;;;;;;5052470;28;20024;-74
2023/07/18 04:45:42;;;;;;;1.85;0.90;;;17.90;99.90;;;;;;5033846;28;20021;-74
2023/07/18 04:48:09;;;;;;;2.97;1.00;;;17.90;99.90;;;;;;5052431;28;20057;-74
2023/07/18 04:50:36;;;;;;;3.35;1.27;;;17.90;99.90;;;;;;5052028;28;20025;-74
2023/07/18 04:53:02;;;;;;;2.53;1.30;;;17.90;99.90;;;;;;5051813;28;20017;-74
2023/07/18 04:55:28;;;;;;;4.45;1.50;;;18.00;99.90;;;;;;5034241;28;20040;-74
2023/07/18 04:57:53;;;;;;;4.05;1.08;;;17.90;99.90;;;;;;5033548;28;20025;-74
2023/07/18 05:00:19;;;;;;;1.83;0.93;;;18.00;99.90;;;;;;5034318;28;20378;-74
2023/07/18 05:02:44;;;;;;;1.65;1.23;;;18.10;99.90;;;;;;5051122;28;20097;-75
2023/07/18 05:05:10;;;;;;;3.75;1.10;;;18.20;99.90;;;;;;5052097;28;20080;-74
2023/07/18 05:07:36;;;;;;;7.95;1.17;;;18.20;99.90;;;;;;5034039;28;20086;-75
2023/07/18 05:10:02;;;;;;;3.22;1.10;;;18.10;99.90;;;;;;5033627;28;20029;-74
2023/07/18 05:12:27;;;;;;;1.48;0.85;;;18.00;99.90;;;;;;5052099;28;20036;-73
2023/07/18 05:14:53;;;;;;;2.70;1.00;;;18.10;99.90;;;;;;5051199;28;20028;-74
2023/07/18 05:17:18;;;;;;;1.75;0.95;;;18.10;99.90;;;;;;5033951;28;20078;-74
2023/07/18 05:19:44;;;;;;;3.67;1.13;;;18.10;99.90;;;;;;5051247;28;20476;-74
2023/07/18 05:22:10;;;;;;;4.35;1.45;;;18.10;99.90;;;;;;5034180;28;20381;-74
2023/07/18 05:24:36;;;;;;;2.90;1.55;;;18.10;99.90;;;;;;5051659;28;20033;-73
2023/07/18 05:27:02;;;;;;;4.13;1.35;;;18.10;99.90;;;;;;5050165;28;20029;-74
2023/07/18 05:29:28;;;;;;;3.25;1.33;;;18.20;99.90;;;;;;5050919;28;20359;-73
2023/07/18 05:31:53;;;;;;;2.90;1.38;;;18.30;99.90;;;;;;5049840;28;20025;-74
2023/07/18 05:34:19;;;;;;;2.75;1.30;;;18.40;99.90;;;;;;5051872;28;20037;-73
2023/07/18 05:36:45;;;;;;;6.20;1.52;;;18.40;99.90;;;;;;5049592;28;20426;-74
2023/07/18 05:39:10;;;;;;;3.13;1.45;;;18.40;99.90;;;;;;5050421;28;20029;-73
2023/07/18 05:41:36;;;;;;;6.55;1.50;;;18.50;99.90;;;;;;5050467;28;20033;-73
2023/07/18 05:44:02;;;;;;;4.38;1.27;;;18.50;99.90;;;;;;5048045;28;20378;-73
2023/07/18 05:46:27;;;;;;;6.53;1.38;;;18.50;99.90;;;;;;5061445;28;20107;-73
2023/07/18 05:48:54;;;;;;;3.70;1.30;;;18.60;99.90;;;;;;5042021;28;20471;-74
2023/07/18 05:51:20;;;;;;;3.03;1.23;;;18.60;99.90;;;;;;5037383;28;20025;-73
2023/07/18 05:53:45;;;;;;;5.03;1.00;;;18.60;99.90;;;;;;5036663;28;20029;-74
2023/07/18 05:56:11;;;;;;;19.38;2.03;;;18.60;99.90;;;;;;5029491;28;20094;-74
2023/07/18 05:58:36;;;;;;;5.38;1.52;;;18.60;99.90;;;;;;5049342;28;20112;-73
2023/07/18 06:01:02;;;;;;;3.35;0.93;;;18.60;99.90;;;;;;5035838;28;20037;-74
2023/07/18 06:03:28;;;;;;;3.70;1.00;;;18.60;99.90;;;;;;5039660;28;20029;-74
2023/07/18 06:05:54;;;;;;;5.68;1.20;;;18.70;99.90;;;;;;5042883;28;20028;-73
2023/07/18 06:08:21;;;;;;;3.92;1.30;;;18.70;99.90;;;;;;5060237;28;20029;-74
2023/07/18 06:10:47;;;;;;;1.65;1.10;;;18.80;99.80;;;;;;5043950;28;20025;-73
2023/07/18 06:13:13;;;;;;;7.63;1.40;;;18.80;99.90;;;;;;5037297;28;20021;-73
2023/07/18 06:15:38;;;;;;;3.33;1.30;;;18.90;99.70;;;;;;5054273;28;20051;-73
2023/07/18 06:18:04;;;;;;;4.00;1.30;;;18.90;99.70;;;;;;5054109;28;20032;-73
2023/07/18 06:20:32;;;;;;;5.20;1.20;;;19.00;99.50;;;;;;5037056;28;20668;-73
2023/07/18 06:22:59;;;;;;;6.65;1.38;;;19.00;99.20;;;;;;5036135;28;20454;-73
2023/07/18 06:25:24;;;;;;;3.55;1.48;;;19.10;99.00;;;;;;5036703;28;20025;-74
2023/07/18 06:27:50;;;;;;;3.63;0.95;;;19.10;98.80;;;;;;5053781;28;20021;-74
2023/07/18 06:30:17;;;;;;;2.33;1.30;;;19.20;98.80;;;;;;5037139;28;20036;-73
2023/07/18 06:32:42;;;;;;;9.80;1.92;;;19.20;98.40;;;;;;5053980;28;20028;-74
2023/07/18 06:35:10;;;;;;;5.43;1.40;;;19.30;98.30;;;;;;5054173;28;20079;-73
2023/07/18 06:37:36;;;;;;;7.45;1.50;;;19.30;98.30;;;;;;5036627;28;20119;-74
2023/07/18 06:40:02;;;;;;;3.78;1.23;;;19.40;98.10;;;;;;5053642;28;20131;-73
2023/07/18 06:42:28;;;;;;;4.22;1.38;;;19.40;97.60;;;;;;5054299;28;20465;-73
2023/07/18 06:44:53;;;;;;;4.82;1.27;;;19.50;97.80;;;;;;5035629;28;20112;-73
2023/07/18 06:47:19;;;;;;;40.63;3.20;;;19.50;97.30;;;;;;5054259;28;20086;-73
2023/07/18 06:49:46;;;;;;;19.33;2.03;;;19.50;97.40;;;;;;5036055;28;20132;-74
2023/07/18 06:52:11;;;;;;;11.07;1.60;;;19.60;97.20;;;;;;5036004;28;20119;-74
2023/07/18 06:54:37;;;;;;;5.63;1.52;;;19.60;97.20;;;;;;5054085;28;20025;-74
2023/07/18 06:57:02;;;;;;;7.70;1.58;;;19.70;97.40;;;;;;5049716;28;20024;-74
2023/07/18 06:59:28;;;;;;;5.63;1.40;;;19.70;97.20;;;;;;5051913;28;20025;-74
2023/07/18 07:01:53;;;;;;;5.20;1.45;;;19.80;96.80;;;;;;5034957;28;20056;-74
2023/07/18 07:04:19;;;;;;;4.40;1.20;;;19.80;96.50;;;;;;5035552;28;20128;-74
2023/07/18 07:06:45;;;;;;;3.78;1.20;;;19.90;96.60;;;;;;5034894;28;20059;-74
2023/07/18 07:09:13;;;;;;;5.35;1.27;;;19.90;96.40;;;;;;5036267;28;20029;-73
2023/07/18 07:11:39;;;;;;;3.13;1.40;;;20.00;96.10;;;;;;5035943;28;20021;-74
2023/07/18 07:14:06;;;;;;;4.05;1.10;;;20.00;95.80;;;;;;5053069;28;20068;-73
2023/07/18 07:16:33;;;;;;;2.47;1.10;;;20.10;96.00;;;;;;5035664;28;20037;-73
2023/07/18 07:18:58;;;;;;;5.40;1.20;;;20.10;95.90;;;;;;5053179;28;20025;-74
2023/07/18 07:21:25;;;;;;;4.63;1.25;;;20.10;95.40;;;;;;5035720;28;20032;-73
2023/07/18 07:23:50;;;;;;;4.03;1.40;;;20.20;95.40;;;;;;5035073;28;20025;-74
2023/07/18 07:26:17;;;;;;;5.80;1.00;;;20.20;95.80;;;;;;5040851;28;20162;-73
2023/07/18 07:28:42;;;;;;;7.30;2.08;;;20.30;95.60;;;;;;5040893;28;20025;-75
2023/07/18 07:31:08;;;;;;;2.60;1.23;;;20.30;95.00;;;;;;5064604;28;20029;-74
2023/07/18 07:33:33;;;;;;;4.78;1.30;;;20.40;95.30;;;;;;5053488;28;20483;-73
2023/07/18 07:35:59;;;;;;;2.50;1.10;;;20.40;95.50;;;;;;5054952;28;20045;-74
2023/07/18 07:38:25;;;;;;;2.70;0.98;;;20.50;95.30;;;;;;5058275;28;20021;-73
2023/07/18 07:40:50;;;;;;;5.32;1.33;;;20.50;94.90;;;;;;5053035;28;20488;-74
2023/07/18 07:43:16;;;;;;;5.13;1.90;;;20.60;95.20;;;;;;5035539;28;20040;-73
2023/07/18 07:45:41;;;;;;;5.75;1.65;;;20.60;94.60;;;;;;5026791;28;20365;-75
2023/07/18 07:48:07;;;;;;;5.03;1.30;;;20.70;94.40;;;;;;5034824;28;20028;-73
2023/07/18 07:50:34;;;;;;;5.97;1.25;;;20.80;94.60;;;;;;5035180;28;20465;-72
2023/07/18 07:52:59;;;;;;;3.80;0.90;;;20.80;94.50;;;;;;5051981;28;20021;-73
2023/07/18 07:55:25;;;;;;;5.72;1.55;;;20.80;94.00;;;;;;5052694;28;20055;-73
2023/07/18 07:57:51;;;;;;;4.53;1.35;;;20.90;94.10;;;;;;5051582;28;20044;-72
2023/07/18 08:00:19;;;;;;;2.85;1.02;;;20.90;94.20;;;;;;5052250;28;20021;-74
2023/07/18 08:02:45;;;;;;;2.90;1.30;;;21.00;93.80;;;;;;5058505;28;20025;-75
2023/07/18 08:05:10;;;;;;;4.22;1.30;;;21.10;93.40;;;;;;5034105;28;20053;-73
2023/07/18 08:07:36;;;;;;;3.55;1.20;;;21.10;93.30;;;;;;5044204;28;20390;-74
2023/07/18 08:10:03;;;;;;;1.92;1.17;;;21.10;93.60;;;;;;5051122;28;20025;-73
2023/07/18 08:12:28;;;;;;;3.75;1.15;;;21.20;93.20;;;;;;5052301;28;20033;-74
2023/07/18 08:14:54;;;;;;;2.03;1.10;;;21.20;93.00;;;;;;5051814;28;20032;-74
2023/07/18 08:17:20;;;;;;;5.93;1.80;;;21.30;93.00;;;;;;5053786;28;20044;-74
2023/07/18 08:19:46;;;;;;;4.05;1.17;;;21.30;93.10;;;;;;5051852;28;20404;-74
2023/07/18 08:22:11;;;;;;;3.30;1.52;;;21.30;93.10;;;;;;5033820;28;20029;-74
2023/07/18 08:24:37;;;;;;;3.85;1.13;;;21.40;93.40;;;;;;5034380;28;20040;-74
2023/07/18 08:27:03;;;;;;;3.38;1.25;;;21.40;93.20;;;;;;5051142;28;20032;-74
2023/07/18 08:29:32;;;;;;;3.80;1.27;;;21.50;92.80;;;;;;5034350;28;20025;-74
2023/07/18 08:31:58;;;;;;;3.00;0.80;;;21.50;92.40;;;;;;5051397;28;20029;-73
2023/07/18 08:34:24;;;;;;;3.03;0.77;;;21.60;92.10;;;;;;5052013;28;20070;-74
2023/07/18 08:36:50;;;;;;;6.10;1.13;;;21.60;92.00;;;;;;5033017;28;20033;-74
2023/07/18 08:39:16;;;;;;;4.10;1.60;;;21.70;92.00;;;;;;5052025;28;20028;-74
2023/07/18 08:41:48;;;;;;;6.55;1.10;;;21.70;91.60;;;;;;5051781;28;20021;-75
2023/07/18 08:44:16;;;;;;;7.20;1.30;;;21.70;91.30;;;;;;5034171;28;20037;-75
2023/07/18 08:46:45;;;;;;;5.28;1.30;;;21.80;91.50;;;;;;5033443;28;20025;-75
2023/07/18 08:49:14;;;;;;;2.75;1.25;;;21.80;91.60;;;;;;5051460;28;20109;-75
2023/07/18 08:51:48;;;;;;;3.15;1.10;;;21.90;91.20;;;;;;5033711;28;20029;-75
2023/07/18 08:54:14;;;;;;;4.30;1.20;;;21.90;90.90;;;;;;5051940;28;20028;-75
2023/07/18 08:56:42;;;;;;;5.00;1.35;;;21.90;91.20;;;;;;5051717;28;20531;-75
2023/07/18 08:59:08;;;;;;;3.33;1.23;;;22.00;91.20;;;;;;5051121;28;20094;-74
2023/07/18 09:01:34;;;;;;;3.03;1.10;;;22.00;91.40;;;;;;5058293;28;20472;-75
2023/07/18 09:03:59;;;;;;;3.33;0.98;;;22.00;90.80;;;;;;5043069;28;20044;-74
2023/07/18 09:06:25;;;;;;;4.43;1.13;;;22.10;91.00;;;;;;5044565;28;20037;-74
2023/07/18 09:08:53;;;;;;;3.10;1.33;;;22.20;90.70;;;;;;5044143;28;20069;-74
2023/07/18 09:11:20;;;;;;;10.40;1.55;;;22.20;90.60;;;;;;5031925;28;20370;-75
2023/07/18 09:13:47;;;;;;;3.60;1.35;;;22.20;90.90;;;;;;5040372;28;20517;-75
2023/07/18 09:16:17;;;;;;;6.40;1.17;;;22.30;91.00;;;;;;5045130;28;20033;-76
2023/07/18 09:18:55;;;;;;;7.53;1.30;;;22.40;90.30;;;;;;5052390;28;20032;-76
2023/07/18 09:21:22;;;;;;;7.72;1.92;;;22.40;90.30;;;;;;5035400;28;20504;-76
2023/07/18 09:23:49;;;;;;;3.17;1.00;;;22.40;90.50;;;;;;5038077;28;20074;-77
2023/07/18 09:26:21;;;;;;;3.53;1.10;;;22.50;90.40;;;;;;5037992;28;20025;-76
2023/07/18 09:28:48;;;;;;;5.85;1.23;;;22.60;90.00;;;;;;5055388;28;20484;-76
2023/07/18 09:31:17;;;;;;;3.33;1.30;;;22.80;89.40;;;;;;5037620;28;20048;-75
2023/07/18 09:33:45;;;;;;;2.53;1.20;;;23.10;88.90;;;;;;5037472;28;20029;-75
2023/07/18 09:36:16;;;;;;;3.72;1.15;;;23.30;88.40;;;;;;5037121;28;20056;-76
2023/07/18 09:38:43;;;;;;;1.50;0.80;;;23.50;87.10;;;;;;5055828;28;20025;-77
2023/07/18 09:41:10;;;;;;;5.60;1.98;;;23.60;86.00;;;;;;5054587;28;20040;-74
2023/07/18 09:43:37;;;;;;;21.55;2.63;;;23.80;86.90;;;;;;5037512;28;20469;-74
2023/07/18 09:46:05;;;;;;;11.10;2.00;;;23.90;87.40;;;;;;5054343;28;20033;-74
2023/07/18 09:48:32;;;;;;;3.40;1.40;;;23.90;86.60;;;;;;5037898;28;20420;-76
2023/07/18 09:50:59;;;;;;;5.88;1.27;;;24.00;86.00;;;;;;5054745;28;20017;-75
2023/07/18 09:53:27;;;;;;;2.80;1.00;;;24.10;84.90;;;;;;5054665;28;20029;-75
2023/07/18 09:55:53;;;;;;;4.03;1.00;;;24.10;83.40;;;;;;5036451;28;20381;-75
2023/07/18 09:58:21;;;;;;;2.10;1.00;;;24.20;82.60;;;;;;5038198;28;20032;-76
2023/07/18 10:00:47;;;;;;;4.57;1.00;;;24.20;82.60;;;;;;5037125;28;20074;-77
2023/07/18 10:03:14;;;;;;;2.22;0.95;;;24.30;82.40;;;;;;5037125;28;20052;-76
2023/07/18 10:05:40;;;;;;;3.60;0.85;;;24.30;81.80;;;;;;5055702;28;20080;-76
2023/07/18 10:08:07;;;;;;;2.78;1.00;;;24.40;81.60;;;;;;5054909;28;20032;-75
2023/07/18 10:10:33;;;;;;;4.57;1.30;;;24.50;82.00;;;;;;5054936;28;20075;-75
2023/07/18 10:13:00;;;;;;;4.63;1.23;;;24.50;81.50;;;;;;5055139;28;20483;-75
2023/07/18 10:15:27;;;;;;;2.45;1.20;;;24.60;82.40;;;;;;5039200;28;20025;-76
2023/07/18 10:17:53;;;;;;;8.57;1.40;;;24.70;82.20;;;;;;5036768;28;20033;-76
2023/07/18 10:20:22;;;;;;;4.18;1.00;;;24.80;81.20;;;;;;5044018;28;20028;-75
2023/07/18 10:22:58;;;;;;;4.60;1.10;;;25.00;81.40;;;;;;5064626;28;20409;-75
2023/07/18 10:25:29;;;;;;;4.18;1.27;;;25.10;80.40;;;;;;5046632;28;20385;-75
2023/07/18 10:27:59;;;;;;;2.13;1.30;;;25.20;79.40;;;;;;5028578;28;20032;-76
2023/07/18 10:30:42;;;;;;;3.15;1.58;;;25.20;79.60;;;;;;5035923;28;20033;-76
2023/07/18 10:33:08;;;;;;;6.03;1.00;;;25.10;78.70;;;;;;5059336;28;20048;-76
2023/07/18 10:35:41;;;;;;;4.63;1.00;;;25.10;78.20;;;;;;5065683;28;20094;-76
2023/07/18 10:38:07;;;;;;;4.10;1.00;;;25.10;77.90;;;;;;5042377;28;20037;-77
2023/07/18 10:40:39;;;;;;;5.30;1.20;;;25.20;78.50;;;;;;5036754;28;20043;-76
2023/07/18 10:43:24;;;;;;;3.65;0.88;;;25.20;76.70;;;;;;5054203;28;20535;-76
2023/07/18 10:45:50;;;;;;;3.40;1.20;;;25.40;76.70;;;;;;5041376;28;20489;-77
2023/07/18 10:48:18;;;;;;;4.10;1.10;;;25.50;76.90;;;;;;5054888;28;20104;-77
2023/07/18 10:50:45;;;;;;;3.30;0.90;;;25.50;76.20;;;;;;5037272;28;20029;-76
2023/07/18 10:53:18;;;;;;;3.53;1.08;;;25.40;76.50;;;;;;5054929;28;20033;-76
2023/07/18 10:55:45;;;;;;;2.42;1.08;;;25.30;75.70;;;;;;5036805;28;20029;-77
2023/07/18 10:58:16;;;;;;;3.30;1.60;;;25.40;75.70;;;;;;5052529;28;20024;-77
2023/07/18 11:00:42;;;;;;;4.93;0.98;;;25.40;74.70;;;;;;5036913;28;20082;-76
2023/07/18 11:03:26;;;;;;;4.20;1.20;;;25.40;74.90;;;;;;5052950;28;20250;-75
2023/07/18 11:05:52;;;;;;;6.18;1.10;;;25.50;74.70;;;;;;5031844;28;20099;-77
2023/07/18 11:08:25;;;;;;;1.70;0.80;;;25.50;74.40;;;;;;5054238;28;20028;-75
2023/07/18 11:11:03;;;;;;;2.58;1.10;;;25.50;75.10;;;;;;5051628;28;20063;-76
2023/07/18 11:13:36;;;;;;;2.97;1.05;;;25.50;75.70;;;;;;5051736;28;20119;-76
2023/07/18 11:16:05;;;;;;;1.65;0.90;;;25.50;74.90;;;;;;5034803;28;20089;-76
2023/07/18 11:18:38;;;;;;;3.97;1.10;;;25.50;74.60;;;;;;5054516;28;20377;-76
2023/07/18 11:21:05;;;;;;;3.05;1.10;;;25.60;76.20;;;;;;5053081;28;20425;-76
2023/07/18 11:23:32;;;;;;;2.38;1.30;;;25.70;76.10;;;;;;5036033;28;20453;-76
2023/07/18 11:25:57;;;;;;;3.17;1.00;;;25.70;76.40;;;;;;5053014;28;20168;-76
2023/07/18 11:28:32;;;;;;;2.67;1.40;;;25.70;75.90;;;;;;5036154;28;20123;-77
2023/07/18 11:30:58;;;;;;;2.83;1.08;;;25.60;75.90;;;;;;5035372;28;20393;-76
2023/07/18 11:33:28;;;;;;;3.60;2.00;;;25.60;75.70;;;;;;5053663;28;20041;-76
2023/07/18 11:35:53;;;;;;;3.95;1.40;;;25.70;76.60;;;;;;5038066;28;20029;-77
2023/07/18 11:38:21;;;;;;;6.15;1.30;;;25.70;77.90;;;;;;5043556;28;20026;-77
2023/07/18 11:40:47;;;;;;;4.75;1.35;;;25.80;77.60;;;;;;5053317;28;20485;-78
2023/07/18 11:43:19;;;;;;;5.20;1.25;;;26.00;78.50;;;;;;5062434;28;20025;-76
2023/07/18 11:45:46;;;;;;;8.55;1.50;;;26.10;78.40;;;;;;5069412;28;20127;-76
2023/07/18 11:48:13;;;;;;;2.53;1.00;;;26.10;78.00;;;;;;5035468;28;20025;-77
2023/07/18 11:50:45;;;;;;;12.73;1.80;;;26.20;75.70;;;;;;5034079;28;20040;-76
2023/07/18 11:53:11;;;;;;;7.05;1.20;;;26.30;74.90;;;;;;5045226;28;20119;-77
2023/07/18 11:55:37;;;;;;;3.97;1.33;;;26.30;74.60;;;;;;5055400;28;20112;-76
2023/07/18 11:58:07;;;;;;;3.92;1.13;;;26.40;75.80;;;;;;5052673;28;20137;-76
2023/07/18 12:00:35;;;;;;;3.93;1.13;;;26.40;73.50;;;;;;5051819;28;20082;-77
2023/07/18 12:03:02;;;;;;;6.50;1.67;;;26.40;73.30;;;;;;5045149;28;20265;-76
2023/07/18 12:05:27;;;;;;;26.40;4.65;;;26.30;75.20;;;;;;5041206;28;20056;-77
2023/07/18 12:07:53;;;;;;;8.32;1.75;;;26.40;76.30;;;;;;5047343;28;20033;-77
2023/07/18 12:10:21;;;;;;;4.65;1.88;;;26.40;76.00;;;;;;5042988;28;20035;-77
2023/07/18 12:12:46;;;;;;;8.30;1.33;;;26.40;73.90;;;;;;5035156;28;20025;-78
2023/07/18 12:15:13;;;;;;;4.93;1.38;;;26.50;73.70;;;;;;5033913;28;20067;-76
2023/07/18 12:17:38;;;;;;;6.63;1.40;;;26.60;73.70;;;;;;5034240;28;20028;-76
2023/07/18 12:20:05;;;;;;;11.10;2.42;;;26.60;72.90;;;;;;5051870;28;20032;-77
2023/07/18 12:22:31;;;;;;;4.88;1.63;;;26.70;73.90;;;;;;5034481;28;20029;-76
2023/07/18 12:24:57;;;;;;;2.55;1.23;;;26.70;73.90;;;;;;5033748;28;20024;-77
2023/07/18 12:27:23;;;;;;;2.90;1.10;;;26.80;73.60;;;;;;5051522;28;20381;-77
2023/07/18 12:29:49;;;;;;;4.32;1.30;;;26.80;75.40;;;;;;5033637;28;20681;-77
2023/07/18 12:32:14;;;;;;;6.28;1.40;;;27.00;74.40;;;;;;5033835;28;20067;-76
2023/07/18 12:34:40;;;;;;;8.52;1.50;;;27.00;74.60;;;;;;5034260;28;20393;-77
2023/07/18 12:37:07;;;;;;;7.57;1.23;;;26.90;75.00;;;;;;5051090;28;20144;-76
2023/07/18 12:39:33;;;;;;;5.30;1.42;;;26.80;74.90;;;;;;5034465;28;20053;-77
2023/07/18 12:41:59;;;;;;;4.50;1.40;;;26.80;76.40;;;;;;5033819;28;20438;-77
2023/07/18 12:44:41;;;;;;;9.68;1.50;;;26.80;75.90;;;;;;5034491;28;20039;-76
2023/07/18 12:47:07;;;;;;;3.42;1.20;;;26.80;74.50;;;;;;5052109;28;20095;-76